createdAt,value
2022-10-20T00:01:11.029Z,101864.03
2022-10-20T00:03:37.730Z,101878.34
2022-10-20T00:06:13.221Z,101872.25
2022-10-20T00:08:41.274Z,101864.25
2022-10-20T00:11:09.446Z,101855.47
2022-10-20T00:13:36.934Z,101850.19
2022-10-20T00:16:04.110Z,101844.72
2022-10-20T00:18:30.959Z,101842.84
2022-10-20T00:20:57.433Z,101828.50
2022-10-20T00:23:24.184Z,101834.69
2022-10-20T00:26:01.548Z,101829.41
2022-10-20T00:28:28.028Z,101824.09
2022-10-20T00:30:56.131Z,101824.09
2022-10-20T00:33:23.126Z,101814.97
2022-10-20T00:35:49.568Z,101810.59
2022-10-20T00:38:16.209Z,101805.31
2022-10-20T00:40:42.597Z,101794.56
2022-10-20T00:43:17.585Z,101796.44
2022-10-20T00:45:50.183Z,101801.81
2022-10-20T00:48:20.493Z,101799.88
2022-10-20T00:50:50.670Z,101794.47
2022-10-20T00:53:18.256Z,101782.84
2022-10-20T00:55:47.750Z,101797.09
2022-10-20T00:58:14.903Z,101795.31
2022-10-20T01:00:44.738Z,101793.53
2022-10-20T01:03:17.659Z,101794.41
2022-10-20T01:05:44.066Z,101791.81
2022-10-20T01:08:10.538Z,101787.44
2022-10-20T01:10:47.304Z,101783.81
2022-10-20T01:13:18.702Z,101794.66
2022-10-20T01:16:01.406Z,101793.88
2022-10-20T01:18:30.712Z,101792.81
2022-10-20T01:21:19.111Z,101797.97
2022-10-20T01:24:06.838Z,101791.78
2022-10-20T01:27:10.984Z,101771.41
2022-10-20T01:29:48.557Z,101765.06
2022-10-20T01:32:23.812Z,101762.47
2022-10-20T01:35:01.993Z,101769.91
2022-10-20T01:37:49.415Z,101759.31
2022-10-20T01:40:44.929Z,101763.94
2022-10-20T01:43:14.160Z,101762.34
2022-10-20T01:45:44.959Z,101755.97
2022-10-20T01:48:13.753Z,101747.19
2022-10-20T01:50:41.572Z,101729.38
2022-10-20T01:53:08.134Z,101722.38
2022-10-20T01:55:35.851Z,101712.56
2022-10-20T01:58:32.536Z,101697.97
2022-10-20T02:01:38.034Z,101691.81
2022-10-20T02:04:07.215Z,101683.94
2022-10-20T02:07:00.038Z,101678.03
2022-10-20T02:12:34.235Z,101656.53
2022-10-20T02:15:02.318Z,101651.97
2022-10-20T02:17:29.095Z,101647.41
2022-10-20T02:19:57.247Z,101643.91
2022-10-20T02:22:24.300Z,101643.06
2022-10-20T02:24:51.965Z,101641.22
2022-10-20T02:27:24.857Z,101644.97
2022-10-20T02:30:18.475Z,101630.63
2022-10-20T02:32:50.131Z,101638.56
2022-10-20T02:35:29.326Z,101636.56
2022-10-20T02:37:56.497Z,101634.81
2022-10-20T02:40:23.273Z,101625.00
2022-10-20T02:42:49.842Z,101624.13
2022-10-20T02:45:16.745Z,101611.69
2022-10-20T02:47:43.204Z,101609.75
2022-10-20T02:50:10.136Z,101599.06
2022-10-20T02:52:37.855Z,101599.03
2022-10-20T02:55:05.367Z,101602.72
2022-10-20T02:57:31.716Z,101609.75
2022-10-20T02:59:58.078Z,101596.38
2022-10-20T03:02:24.501Z,101588.28
2022-10-20T03:04:50.868Z,101581.06
2022-10-20T03:07:17.216Z,101577.47
2022-10-20T03:09:44.213Z,101571.22
2022-10-20T03:12:10.615Z,101571.44
2022-10-20T03:14:37.010Z,101565.09
2022-10-20T03:17:03.438Z,101573.03
2022-10-20T03:19:29.874Z,101558.78
2022-10-20T03:21:56.215Z,101557.72
2022-10-20T03:24:22.562Z,101553.88
2022-10-20T03:26:48.913Z,101539.63
2022-10-20T03:29:15.260Z,101539.72
2022-10-20T03:31:41.723Z,101542.25
2022-10-20T03:34:08.285Z,101545.03
2022-10-20T03:36:34.700Z,101528.81
2022-10-20T03:39:01.055Z,101525.94
2022-10-20T03:41:27.429Z,101518.78
2022-10-20T03:43:53.776Z,101525.03
2022-10-20T03:46:20.146Z,101507.03
2022-10-20T03:48:46.521Z,101493.34
2022-10-20T03:51:14.011Z,101488.75
2022-10-20T03:53:40.523Z,101487.88
2022-10-20T03:56:09.202Z,101486.19
2022-10-20T03:58:35.767Z,101490.66
2022-10-20T04:01:03.333Z,101485.94
2022-10-20T04:03:29.692Z,101487.66
2022-10-20T04:05:56.037Z,101484.00
2022-10-20T04:08:22.394Z,101484.88
2022-10-20T04:10:48.729Z,101477.88
2022-10-20T04:13:15.139Z,101481.38
2022-10-20T04:15:41.496Z,101479.63
2022-10-20T04:18:08.520Z,101461.69
2022-10-20T04:20:34.878Z,101449.25
2022-10-20T04:23:01.247Z,101448.94
2022-10-20T04:25:27.672Z,101446.97
2022-10-20T04:27:54.044Z,101437.84
2022-10-20T04:30:20.395Z,101418.09
2022-10-20T04:32:46.732Z,101417.09
2022-10-20T04:35:13.100Z,101413.75
2022-10-20T04:37:39.840Z,101398.34
2022-10-20T04:40:06.919Z,101394.66
2022-10-20T04:42:33.278Z,101399.16
2022-10-20T04:44:59.638Z,101411.72
2022-10-20T04:47:25.999Z,101417.28
2022-10-20T04:49:52.381Z,101427.09
2022-10-20T04:52:20.680Z,101428.91
2022-10-20T04:54:47.039Z,101436.00
2022-10-20T04:57:13.440Z,101419.13
2022-10-20T04:59:39.825Z,101427.34
2022-10-20T05:02:06.223Z,101434.34
2022-10-20T05:04:32.673Z,101454.88
2022-10-20T05:06:59.037Z,101480.13
2022-10-20T05:09:25.413Z,101486.16
2022-10-20T05:11:53.317Z,101469.13
2022-10-20T05:14:20.162Z,101463.69
2022-10-20T05:16:46.516Z,101452.78
2022-10-20T05:19:12.908Z,101439.22
2022-10-20T05:21:39.330Z,101436.66
2022-10-20T05:24:06.592Z,101415.94
2022-10-20T05:26:36.969Z,101407.88
2022-10-20T05:29:05.590Z,101404.34
2022-10-20T05:31:32.066Z,101397.06
2022-10-20T05:33:58.574Z,101398.81
2022-10-20T05:36:26.821Z,101374.69
2022-10-20T05:38:54.956Z,101364.81
2022-10-20T05:41:27.192Z,101356.69
2022-10-20T05:43:59.372Z,101364.81
2022-10-20T05:46:34.464Z,101386.25
2022-10-20T05:49:02.857Z,101388.78
2022-10-20T05:51:31.995Z,101387.88
2022-10-20T05:53:59.373Z,101388.78
2022-10-20T05:56:27.934Z,101385.19
2022-10-20T05:58:54.858Z,101385.03
2022-10-20T06:01:24.819Z,101374.22
2022-10-20T06:04:00.149Z,101368.81
2022-10-20T06:06:29.348Z,101359.03
2022-10-20T06:08:57.270Z,101348.19
2022-10-20T06:11:24.395Z,101346.41
2022-10-20T06:13:53.017Z,101353.56
2022-10-20T06:16:24.865Z,101369.63
2022-10-20T06:18:51.443Z,101375.88
2022-10-20T06:21:23.511Z,101374.16
2022-10-20T06:23:50.328Z,101358.75
2022-10-20T06:26:19.995Z,101360.63
2022-10-20T06:28:48.454Z,101357.00
2022-10-20T06:31:28.318Z,101342.81
2022-10-20T06:33:55.226Z,101339.03
2022-10-20T06:36:22.467Z,101348.94
2022-10-20T06:38:53.383Z,101343.47
2022-10-20T06:41:19.786Z,101332.78
2022-10-20T06:43:46.155Z,101327.34
2022-10-20T06:46:15.259Z,101331.78
2022-10-20T06:48:42.049Z,101337.94
2022-10-20T06:51:12.081Z,101328.03
2022-10-20T06:53:42.613Z,101325.34
2022-10-20T06:56:14.817Z,101328.72
2022-10-20T06:58:43.273Z,101327.81
2022-10-20T07:01:14.625Z,101337.53
2022-10-20T07:03:41.918Z,101343.66
2022-10-20T07:06:11.456Z,101345.31
2022-10-20T07:08:37.909Z,101331.75
2022-10-20T07:11:09.747Z,101328.03
2022-10-20T07:13:37.650Z,101325.22
2022-10-20T07:16:06.399Z,101314.28
2022-10-20T07:18:32.831Z,101333.84
2022-10-20T07:21:01.355Z,101333.63
2022-10-20T07:23:28.812Z,101322.69
2022-10-20T07:26:06.100Z,101328.69
2022-10-20T07:28:33.565Z,101324.78
2022-10-20T07:31:31.500Z,101335.13
2022-10-20T07:34:06.815Z,101325.78
2022-10-20T07:36:42.424Z,101320.09
2022-10-20T07:39:10.644Z,101327.84
2022-10-20T07:41:37.905Z,101327.56
2022-10-20T07:44:04.795Z,101328.06
2022-10-20T07:46:31.175Z,101314.38
2022-10-20T07:49:11.477Z,101305.19
2022-10-20T07:51:43.957Z,101298.69
2022-10-20T07:54:11.733Z,101283.28
2022-10-20T07:56:40.754Z,101270.47
2022-10-20T07:59:08.575Z,101282.91
2022-10-20T08:01:35.439Z,101269.16
2022-10-20T08:04:01.961Z,101260.75
2022-10-20T08:06:28.487Z,101255.94
2022-10-20T08:08:55.647Z,101263.78
2022-10-20T08:11:23.032Z,101264.44
2022-10-20T08:13:49.407Z,101264.25
2022-10-20T08:16:16.071Z,101266.00
2022-10-20T08:21:26.018Z,101264.78
2022-10-20T08:23:52.397Z,101257.47
2022-10-20T08:26:21.430Z,101248.31
2022-10-20T08:28:50.217Z,101229.97
2022-10-20T08:31:16.825Z,101226.06
2022-10-20T08:33:43.323Z,101233.75
2022-10-20T08:36:12.704Z,101239.56
2022-10-20T08:38:40.100Z,101216.59
2022-10-20T08:41:17.563Z,101219.66
2022-10-20T08:43:46.044Z,101218.19
2022-10-20T08:46:15.712Z,101217.31
2022-10-20T08:48:44.629Z,101236.19
2022-10-20T08:51:23.487Z,101238.81
2022-10-20T08:53:53.130Z,101231.50
2022-10-20T08:56:23.681Z,101228.09
2022-10-20T08:58:50.804Z,101223.19
2022-10-20T09:01:24.737Z,101221.69
2022-10-20T09:03:56.382Z,101226.47
2022-10-20T09:06:23.734Z,101217.66
2022-10-20T09:08:51.251Z,101213.13
2022-10-20T09:11:23.098Z,101208.41
2022-10-20T09:13:50.086Z,101202.50
2022-10-20T09:16:34.996Z,101196.22
2022-10-20T09:19:20.754Z,101200.66
2022-10-20T09:21:52.371Z,101203.19
2022-10-20T09:24:22.167Z,101199.69
2022-10-20T09:26:58.766Z,101206.13
2022-10-20T09:29:37.451Z,101194.00
2022-10-20T09:32:44.379Z,101197.41
2022-10-20T09:35:26.678Z,101181.66
2022-10-20T09:38:11.531Z,101182.84
2022-10-20T09:40:44.204Z,101180.56
2022-10-20T09:43:16.905Z,101182.09
2022-10-20T09:45:53.578Z,101169.22
2022-10-20T09:48:29.134Z,101167.88
2022-10-20T09:50:56.918Z,101175.16
2022-10-20T09:53:39.926Z,101172.81
2022-10-20T09:56:06.801Z,101174.66
2022-10-20T09:58:42.595Z,101176.09
2022-10-20T10:01:11.737Z,101172.91
2022-10-20T10:03:51.560Z,101158.94
2022-10-20T10:06:38.931Z,101141.94
2022-10-20T10:09:34.367Z,101136.59
2022-10-20T10:12:12.944Z,101141.13
2022-10-20T10:14:53.248Z,101134.84
2022-10-20T10:17:39.845Z,101112.28
2022-10-20T10:20:12.433Z,101116.69
2022-10-20T10:22:40.218Z,101114.22
2022-10-20T10:25:13.922Z,101132.16
2022-10-20T10:27:40.451Z,101130.31
2022-10-20T10:30:29.125Z,101142.19
2022-10-20T10:32:56.357Z,101145.88
2022-10-20T10:35:37.412Z,101131.59
2022-10-20T10:38:03.992Z,101119.03
2022-10-20T10:40:45.908Z,101147.81
2022-10-20T10:43:35.274Z,101137.84
2022-10-20T10:46:07.144Z,101126.94
2022-10-20T10:49:00.689Z,101130.59
2022-10-20T10:51:43.411Z,101105.50
2022-10-20T10:54:15.946Z,101119.78
2022-10-20T10:56:47.589Z,101118.94
2022-10-20T10:59:28.978Z,101096.44
2022-10-20T11:02:14.145Z,101112.66
2022-10-20T11:05:04.514Z,101091.59
2022-10-20T11:07:44.954Z,101078.84
2022-10-20T11:10:26.471Z,101094.13
2022-10-20T11:13:17.662Z,101086.19
2022-10-20T11:15:44.058Z,101086.41
2022-10-20T11:18:19.685Z,101074.69
2022-10-20T11:20:57.681Z,101067.34
2022-10-20T11:23:52.631Z,101059.06
2022-10-20T11:26:33.340Z,101046.50
2022-10-20T11:29:02.925Z,101040.22
2022-10-20T11:31:54.621Z,101033.88
2022-10-20T11:34:43.969Z,101032.22
2022-10-20T11:37:28.932Z,101039.28
2022-10-20T11:40:06.002Z,101042.53
2022-10-20T11:42:54.509Z,101038.66
2022-10-20T11:45:42.833Z,101035.00
2022-10-20T11:52:06.006Z,101037.72
2022-10-20T11:55:07.761Z,101033.75
2022-10-20T11:57:49.256Z,101023.47
2022-10-20T12:00:36.824Z,101024.66
2022-10-20T12:03:40.931Z,101021.22
2022-10-20T12:06:19.808Z,101029.59
2022-10-20T12:08:51.961Z,101037.38
2022-10-20T12:11:26.109Z,101033.50
2022-10-20T12:14:14.466Z,101026.50
2022-10-20T12:16:58.198Z,101026.13
2022-10-20T12:19:30.195Z,101017.16
2022-10-20T12:22:00.960Z,101016.72
2022-10-20T12:24:50.289Z,101022.38
2022-10-20T12:27:22.697Z,101016.97
2022-10-20T12:30:00.202Z,101010.25
2022-10-20T12:32:29.547Z,101012.47
2022-10-20T12:34:59.880Z,101018.22
2022-10-20T12:37:33.656Z,101003.47
2022-10-20T12:40:24.508Z,101001.09
2022-10-20T12:42:53.509Z,101013.88
2022-10-20T12:45:19.869Z,101006.38
2022-10-20T12:47:54.313Z,101010.50
2022-10-20T12:50:34.064Z,101009.56
2022-10-20T12:53:18.299Z,101008.13
2022-10-20T12:56:06.851Z,101010.16
2022-10-20T12:58:38.493Z,101006.59
2022-10-20T13:01:12.126Z,101010.16
2022-10-20T13:03:50.781Z,101004.31
2022-10-20T13:06:23.254Z,101008.88
2022-10-20T13:09:05.111Z,101005.84
2022-10-20T13:11:44.587Z,100997.00
2022-10-20T13:14:42.647Z,100986.19
2022-10-20T13:17:09.000Z,100975.28
2022-10-20T13:19:44.536Z,100979.63
2022-10-20T13:22:42.997Z,100988.69
2022-10-20T13:25:44.075Z,100978.72
2022-10-20T13:28:13.194Z,100989.56
2022-10-20T13:31:09.031Z,100991.72
2022-10-20T13:34:04.996Z,100976.44
2022-10-20T13:37:09.516Z,100982.75
2022-10-20T13:39:45.332Z,100964.44
2022-10-20T13:42:23.833Z,100964.78
2022-10-20T13:45:07.607Z,100964.03
2022-10-20T13:47:48.951Z,100959.50
2022-10-20T13:50:27.963Z,100956.91
2022-10-20T13:52:59.082Z,100963.53
2022-10-20T13:55:28.848Z,100966.69
2022-10-20T13:57:58.031Z,100961.53
2022-10-20T14:00:31.510Z,100958.47
2022-10-20T14:03:15.383Z,100953.09
2022-10-20T14:05:41.869Z,100950.81
2022-10-20T14:08:10.234Z,100950.06
2022-10-20T14:10:47.087Z,100952.03
2022-10-20T14:13:16.942Z,100942.06
2022-10-20T14:15:59.042Z,100941.97
2022-10-20T14:18:32.221Z,100943.53
2022-10-20T14:21:08.445Z,100943.13
2022-10-20T14:23:38.258Z,100942.53
2022-10-20T14:26:07.732Z,100953.00
2022-10-20T14:28:35.733Z,100946.28
2022-10-20T14:31:03.052Z,100939.38
2022-10-20T14:33:33.281Z,100945.44
2022-10-20T14:36:02.517Z,100937.41
2022-10-20T14:38:37.534Z,100945.69
2022-10-20T14:41:06.563Z,100941.13
2022-10-20T14:43:43.675Z,100942.09
2022-10-20T14:46:13.177Z,100940.25
2022-10-20T14:48:46.168Z,100938.97
2022-10-20T14:51:44.976Z,100939.97
2022-10-20T14:54:20.513Z,100946.38
2022-10-20T14:56:50.354Z,100940.72
2022-10-20T14:59:22.227Z,100938.75
2022-10-20T15:02:20.607Z,100932.22
2022-10-20T15:04:48.918Z,100930.47
2022-10-20T15:07:18.070Z,100921.25
2022-10-20T15:10:00.402Z,100923.84
2022-10-20T15:12:33.080Z,100928.69
2022-10-20T15:15:10.674Z,100924.53
2022-10-20T15:17:46.183Z,100933.53
2022-10-20T15:20:33.871Z,100929.22
2022-10-20T15:23:02.428Z,100933.03
2022-10-20T15:25:43.168Z,100928.47
2022-10-20T15:28:21.064Z,100927.59
2022-10-20T15:30:47.726Z,100925.84
2022-10-20T15:33:14.087Z,100920.44
2022-10-20T15:35:44.939Z,100922.28
2022-10-20T15:38:11.384Z,100915.13
2022-10-20T15:40:37.828Z,100916.84
2022-10-20T15:43:05.088Z,100911.72
2022-10-20T15:45:35.763Z,100903.63
2022-10-20T15:48:02.139Z,100894.09
2022-10-20T15:50:28.723Z,100900.47
2022-10-20T15:52:55.161Z,100896.38
2022-10-20T15:55:28.942Z,100896.22
2022-10-20T15:57:55.448Z,100900.34
2022-10-20T16:00:24.432Z,100898.63
2022-10-20T16:02:51.412Z,100891.72
2022-10-20T16:05:20.212Z,100891.06
2022-10-20T16:07:47.097Z,100884.91
2022-10-20T16:10:13.867Z,100886.34
2022-10-20T16:12:41.341Z,100886.03
2022-10-20T16:15:09.125Z,100890.94
2022-10-20T16:17:36.268Z,100886.72
2022-10-20T16:20:05.276Z,100879.78
2022-10-20T16:22:31.633Z,100885.56
2022-10-20T16:25:01.207Z,100885.69
2022-10-20T16:27:28.920Z,100882.00
2022-10-20T16:29:55.373Z,100882.47
2022-10-20T16:32:21.734Z,100882.56
2022-10-20T16:34:48.062Z,100884.28
2022-10-20T16:37:14.451Z,100887.13
2022-10-20T16:39:40.834Z,100882.31
2022-10-20T16:42:07.178Z,100895.88
2022-10-20T16:44:33.621Z,100891.84
2022-10-20T16:46:59.989Z,100889.91
2022-10-20T16:49:27.833Z,100886.44
2022-10-20T16:51:54.183Z,100887.13
2022-10-20T16:54:20.593Z,100887.44
2022-10-20T16:56:47.028Z,100886.38
2022-10-20T16:59:13.362Z,100881.28
2022-10-20T17:01:39.868Z,100884.22
2022-10-20T17:04:06.310Z,100885.50
2022-10-20T17:06:32.727Z,100881.72
2022-10-20T17:08:59.631Z,100880.50
2022-10-20T17:11:28.273Z,100881.34
2022-10-20T17:13:55.103Z,100888.38
2022-10-20T17:16:27.627Z,100886.53
2022-10-20T17:18:56.413Z,100893.59
2022-10-20T17:21:22.800Z,100884.72
2022-10-20T17:23:49.171Z,100885.38
2022-10-20T17:26:18.369Z,100882.50
2022-10-20T17:28:45.467Z,100885.38
2022-10-20T17:31:14.459Z,100883.50
2022-10-20T17:33:40.896Z,100880.44
2022-10-20T17:36:08.086Z,100884.00
2022-10-20T17:38:35.516Z,100882.50
2022-10-20T17:41:10.561Z,100883.41
2022-10-20T17:43:37.694Z,100880.34
2022-10-20T17:46:10.733Z,100878.13
2022-10-20T17:48:38.252Z,100875.19
2022-10-20T17:51:21.563Z,100873.13
2022-10-20T17:53:49.498Z,100859.22
2022-10-20T17:56:31.045Z,100868.84
2022-10-20T17:59:00.005Z,100856.78
2022-10-20T18:01:30.471Z,100849.38
2022-10-20T18:04:05.285Z,100851.53
2022-10-20T18:06:34.697Z,100848.47
2022-10-20T18:09:13.200Z,100851.06
2022-10-20T18:11:42.884Z,100843.66
2022-10-20T18:14:09.270Z,100837.47
2022-10-20T18:16:36.997Z,100836.75
2022-10-20T18:19:03.867Z,100841.19
2022-10-20T18:21:31.434Z,100834.28
2022-10-20T18:24:02.112Z,100838.31
2022-10-20T18:26:29.623Z,100832.03
2022-10-20T18:28:56.020Z,100840.66
2022-10-20T18:31:24.816Z,100844.13
2022-10-20T18:33:56.282Z,100837.09
2022-10-20T18:36:23.709Z,100834.38
2022-10-20T18:38:50.138Z,100829.72
2022-10-20T18:41:19.734Z,100828.75
2022-10-20T18:43:46.726Z,100831.44
2022-10-20T18:46:14.585Z,100838.06
2022-10-20T18:48:41.705Z,100826.84
2022-10-20T18:51:09.724Z,100829.31
2022-10-20T18:53:37.899Z,100835.09
2022-10-20T18:56:10.623Z,100837.69
2022-10-20T18:58:39.149Z,100828.81
2022-10-20T19:01:08.331Z,100831.50
2022-10-20T19:03:35.481Z,100830.13
2022-10-20T19:06:03.129Z,100825.91
2022-10-20T19:08:30.392Z,100824.22
2022-10-20T19:10:57.569Z,100826.91
2022-10-20T19:13:26.104Z,100824.31
2022-10-20T19:15:53.312Z,100836.03
2022-10-20T19:18:19.938Z,100830.84
2022-10-20T19:20:57.311Z,100820.97
2022-10-20T19:23:24.162Z,100821.97
2022-10-20T19:26:11.235Z,100825.84
2022-10-20T19:28:45.141Z,100820.44
2022-10-20T19:31:21.655Z,100832.38
2022-10-20T19:33:51.222Z,100828.56
2022-10-20T19:36:18.654Z,100826.75
2022-10-20T19:38:45.818Z,100828.19
2022-10-20T19:41:12.329Z,100827.06
2022-10-20T19:43:39.481Z,100810.81
2022-10-20T19:46:07.870Z,100806.59
2022-10-20T19:48:35.342Z,100814.97
2022-10-20T19:51:02.035Z,100817.91
2022-10-20T19:53:28.473Z,100815.63
2022-10-20T19:55:55.004Z,100818.44
2022-10-20T19:58:22.296Z,100820.41
2022-10-20T20:00:51.760Z,100819.66
2022-10-20T20:03:19.050Z,100818.91
2022-10-20T20:05:48.286Z,100814.91
2022-10-20T20:08:15.034Z,100806.25
2022-10-20T20:10:41.775Z,100799.56
2022-10-20T20:13:09.558Z,100786.03
2022-10-20T20:15:35.927Z,100792.41
2022-10-20T20:18:02.302Z,100776.41
2022-10-20T20:20:28.735Z,100780.97
2022-10-20T20:22:55.101Z,100792.66
2022-10-20T20:25:21.461Z,100777.25
2022-10-20T20:27:47.813Z,100770.13
2022-10-20T20:30:14.224Z,100779.44
2022-10-20T20:32:42.808Z,100761.44
2022-10-20T20:35:14.240Z,100766.00
2022-10-20T20:37:40.683Z,100762.56
2022-10-20T20:40:07.704Z,100750.53
2022-10-20T20:42:34.048Z,100755.56
2022-10-20T20:45:01.796Z,100758.44
2022-10-20T20:47:31.096Z,100759.34
2022-10-20T20:49:57.469Z,100755.13
2022-10-20T20:52:25.974Z,100756.72
2022-10-20T20:54:52.336Z,100760.66
2022-10-20T20:57:18.769Z,100773.75
2022-10-20T20:59:45.148Z,100765.00
2022-10-20T21:02:11.497Z,100767.19
2022-10-20T21:04:37.862Z,100773.44
2022-10-20T21:07:04.221Z,100769.78
2022-10-20T21:09:31.167Z,100768.94
2022-10-20T21:11:57.647Z,100769.69
2022-10-20T21:14:24.056Z,100778.00
2022-10-20T21:16:50.426Z,100776.16
2022-10-20T21:19:17.001Z,100778.97
2022-10-20T21:21:57.274Z,100783.53
2022-10-20T21:24:27.475Z,100784.56
2022-10-20T21:26:54.320Z,100791.31
2022-10-20T21:29:20.672Z,100781.78
2022-10-20T21:31:47.018Z,100778.19
2022-10-20T21:34:13.434Z,100779.38
2022-10-20T21:36:40.152Z,100775.91
2022-10-20T21:39:09.314Z,100779.81
2022-10-20T21:41:36.325Z,100794.47
2022-10-20T21:44:04.937Z,100778.97
2022-10-20T21:46:40.193Z,100782.78
2022-10-20T21:49:10.673Z,100787.28
2022-10-20T21:51:48.613Z,100778.66
2022-10-20T21:54:18.054Z,100779.63
2022-10-20T21:56:46.860Z,100770.19
2022-10-20T21:59:24.518Z,100769.09
2022-10-20T22:01:53.068Z,100770.59
2022-10-20T22:04:21.468Z,100767.56
2022-10-20T22:06:47.987Z,100775.81
2022-10-20T22:09:15.498Z,100779.38
2022-10-20T22:11:44.539Z,100783.81
2022-10-20T22:14:11.313Z,100775.81
2022-10-20T22:16:40.275Z,100772.13
2022-10-20T22:19:11.770Z,100771.38
2022-10-20T22:21:41.085Z,100766.06
2022-10-20T22:24:07.644Z,100770.28
2022-10-20T22:26:34.825Z,100775.69
2022-10-20T22:29:02.146Z,100779.16
2022-10-20T22:31:28.915Z,100777.72
2022-10-20T22:33:57.467Z,100766.91
2022-10-20T22:36:25.110Z,100763.44
2022-10-20T22:38:51.872Z,100761.28
2022-10-20T22:41:18.766Z,100760.66
2022-10-20T22:43:45.246Z,100760.97
2022-10-20T22:46:11.695Z,100766.28
2022-10-20T22:48:38.405Z,100759.16
2022-10-20T22:51:05.963Z,100758.59
2022-10-20T22:53:32.361Z,100768.69
2022-10-20T22:56:10.354Z,100767.84
2022-10-20T22:58:37.044Z,100760.81
2022-10-20T23:01:18.630Z,100761.00
2022-10-20T23:03:46.034Z,100752.13
2022-10-20T23:06:16.168Z,100753.25
2022-10-20T23:08:46.108Z,100754.19
2022-10-20T23:11:14.332Z,100751.28
2022-10-20T23:13:40.778Z,100750.84
2022-10-20T23:16:07.688Z,100751.84
2022-10-20T23:18:34.609Z,100755.06
2022-10-20T23:21:01.035Z,100759.09
2022-10-20T23:23:27.415Z,100756.41
2022-10-20T23:25:54.056Z,100751.84
2022-10-20T23:28:20.984Z,100739.91
2022-10-20T23:30:47.698Z,100743.72
2022-10-20T23:33:14.079Z,100748.03
2022-10-20T23:35:40.769Z,100751.19
2022-10-20T23:38:09.371Z,100747.50
2022-10-20T23:40:36.300Z,100740.69
2022-10-20T23:43:02.847Z,100750.03
2022-10-20T23:45:30.918Z,100742.09
2022-10-20T23:48:00.419Z,100743.06
2022-10-20T23:50:26.853Z,100734.53
2022-10-20T23:52:53.236Z,100739.41
2022-10-20T23:55:19.889Z,100742.31
2022-10-20T23:57:46.290Z,100741.03
